createdAt,value
2023-05-03T00:01:31.655Z,2.50
2023-05-03T00:03:58.374Z,2.90
2023-05-03T00:06:25.587Z,2.60
2023-05-03T00:08:52.315Z,2.77
2023-05-03T00:11:19.299Z,2.80
2023-05-03T00:13:45.939Z,2.67
2023-05-03T00:16:12.866Z,2.60
2023-05-03T00:18:39.661Z,2.27
2023-05-03T00:21:06.498Z,2.60
2023-05-03T00:23:33.107Z,2.53
2023-05-03T00:25:59.745Z,2.57
2023-05-03T00:28:26.849Z,2.60
2023-05-03T00:30:53.898Z,2.47
2023-05-03T00:33:20.692Z,2.57
2023-05-03T00:35:47.637Z,2.40
2023-05-03T00:38:15.421Z,2.30
2023-05-03T00:40:42.139Z,2.30
2023-05-03T00:43:11.810Z,2.00
2023-05-03T00:45:38.680Z,2.03
2023-05-03T00:48:06.191Z,2.30
2023-05-03T00:50:32.935Z,1.90
2023-05-03T00:52:59.649Z,2.17
2023-05-03T00:55:30.401Z,2.20
2023-05-03T00:57:57.571Z,2.27
2023-05-03T01:00:24.908Z,2.30
2023-05-03T01:02:51.849Z,2.43
2023-05-03T01:05:18.853Z,2.40
2023-05-03T01:08:02.983Z,2.40
2023-05-03T01:10:52.639Z,2.27
2023-05-03T01:13:42.580Z,2.17
2023-05-03T01:16:19.462Z,2.20
2023-05-03T01:18:50.056Z,2.30
2023-05-03T01:21:18.496Z,2.30
2023-05-03T01:24:08.307Z,2.27
2023-05-03T01:26:35.046Z,2.03
2023-05-03T01:29:01.712Z,2.20
2023-05-03T01:31:38.729Z,2.30
2023-05-03T01:34:12.875Z,2.20
2023-05-03T01:36:43.371Z,2.40
2023-05-03T01:39:19.240Z,2.27
2023-05-03T01:41:47.019Z,2.40
2023-05-03T01:44:14.140Z,2.33
2023-05-03T01:46:44.575Z,2.20
2023-05-03T01:49:11.400Z,2.50
2023-05-03T01:51:38.268Z,2.30
2023-05-03T01:54:05.705Z,2.27
2023-05-03T01:56:34.734Z,2.40
2023-05-03T01:59:01.696Z,2.43
2023-05-03T02:01:28.484Z,2.30
2023-05-03T02:03:55.523Z,2.20
2023-05-03T02:06:22.303Z,2.57
2023-05-03T02:08:49.006Z,2.20
2023-05-03T02:11:15.670Z,2.23
2023-05-03T02:13:42.334Z,2.27
2023-05-03T02:16:09.666Z,2.53
2023-05-03T02:18:36.859Z,2.63
2023-05-03T02:21:05.105Z,2.60
2023-05-03T02:23:31.768Z,2.37
2023-05-03T02:25:58.689Z,2.97
2023-05-03T02:28:25.350Z,2.60
2023-05-03T02:30:52.160Z,3.00
2023-05-03T02:33:18.902Z,3.10
2023-05-03T02:35:45.625Z,2.80
2023-05-03T02:38:12.325Z,2.60
2023-05-03T02:40:38.968Z,2.80
2023-05-03T02:43:05.677Z,2.97
2023-05-03T02:45:32.345Z,2.80
2023-05-03T02:47:59.583Z,2.83
2023-05-03T02:50:26.323Z,2.80
2023-05-03T02:52:53.068Z,2.80
2023-05-03T02:55:19.725Z,2.90
2023-05-03T02:57:46.563Z,2.80
2023-05-03T03:00:15.394Z,3.10
2023-05-03T03:02:42.201Z,2.97
2023-05-03T03:05:09.287Z,3.37
2023-05-03T03:07:37.787Z,3.27
2023-05-03T03:10:04.954Z,2.80
2023-05-03T03:12:31.881Z,3.00
2023-05-03T03:14:58.547Z,3.20
2023-05-03T03:17:25.261Z,2.80
2023-05-03T03:19:52.005Z,3.40
2023-05-03T03:22:18.671Z,3.00
2023-05-03T03:24:46.224Z,3.17
2023-05-03T03:27:12.878Z,3.20
2023-05-03T03:29:40.155Z,3.30
2023-05-03T03:32:07.267Z,3.07
2023-05-03T03:34:34.177Z,3.20
2023-05-03T03:37:00.849Z,3.37
2023-05-03T03:39:27.548Z,3.10
2023-05-03T03:41:54.237Z,3.30
2023-05-03T03:44:21.007Z,3.13
2023-05-03T03:46:47.758Z,3.40
2023-05-03T03:49:14.444Z,3.20
2023-05-03T03:51:41.095Z,3.20
2023-05-03T03:54:07.795Z,3.00
2023-05-03T03:56:34.525Z,3.10
2023-05-03T03:59:04.452Z,3.03
2023-05-03T04:01:49.246Z,3.20
2023-05-03T04:04:33.396Z,3.37
2023-05-03T04:07:01.322Z,3.50
2023-05-03T04:09:28.081Z,3.50
2023-05-03T04:11:54.799Z,3.43
2023-05-03T04:14:21.777Z,3.63
2023-05-03T04:16:48.508Z,3.37
2023-05-03T04:19:15.697Z,3.60
2023-05-03T04:21:42.346Z,3.40
2023-05-03T04:24:10.148Z,3.53
2023-05-03T04:26:37.233Z,3.77
2023-05-03T04:29:04.431Z,3.23
2023-05-03T04:31:31.201Z,3.83
2023-05-03T04:33:58.081Z,3.77
2023-05-03T04:36:30.008Z,3.33
2023-05-03T04:38:57.279Z,3.70
2023-05-03T04:41:24.442Z,3.80
2023-05-03T04:43:52.157Z,3.80
2023-05-03T04:46:19.046Z,4.00
2023-05-03T04:48:46.079Z,3.60
2023-05-03T04:51:12.753Z,3.93
2023-05-03T04:53:41.555Z,3.93
2023-05-03T04:56:08.386Z,3.50
2023-05-03T04:58:36.309Z,3.83
2023-05-03T05:01:03.476Z,3.73
2023-05-03T05:03:31.548Z,3.90
2023-05-03T05:05:58.630Z,3.70
2023-05-03T05:08:25.491Z,3.73
2023-05-03T05:10:52.171Z,3.50
2023-05-03T05:13:19.219Z,4.03
2023-05-03T05:15:51.425Z,3.37
2023-05-03T05:18:18.755Z,3.87
2023-05-03T05:20:45.490Z,4.00
2023-05-03T05:23:12.359Z,4.27
2023-05-03T05:25:39.024Z,3.73
2023-05-03T05:28:05.870Z,4.00
2023-05-03T05:30:33.065Z,3.97
2023-05-03T05:32:59.961Z,4.77
2023-05-03T05:35:27.041Z,4.00
2023-05-03T05:37:54.022Z,3.90
2023-05-03T05:40:21.177Z,3.93
2023-05-03T05:42:48.800Z,4.23
2023-05-03T05:45:15.688Z,4.10
2023-05-03T05:47:42.613Z,4.00
2023-05-03T05:50:17.424Z,4.27
2023-05-03T05:52:45.190Z,4.20
2023-05-03T05:55:14.661Z,4.50
2023-05-03T05:57:41.374Z,3.90
2023-05-03T06:00:14.231Z,4.37
2023-05-03T06:02:42.011Z,4.27
2023-05-03T06:05:09.426Z,4.40
2023-05-03T06:07:36.721Z,4.50
2023-05-03T06:10:04.644Z,4.10
2023-05-03T06:12:31.534Z,4.20
2023-05-03T06:15:02.947Z,4.37
2023-05-03T06:17:30.108Z,4.33
2023-05-03T06:19:57.660Z,4.33
2023-05-03T06:22:25.239Z,3.80
2023-05-03T06:24:52.073Z,3.70
2023-05-03T06:27:18.900Z,4.00
2023-05-03T06:29:46.646Z,4.27
2023-05-03T06:32:13.463Z,4.47
2023-05-03T06:34:40.140Z,4.53
2023-05-03T06:37:06.905Z,4.30
2023-05-03T06:39:33.941Z,4.10
2023-05-03T06:42:01.197Z,4.50
2023-05-03T06:44:27.884Z,4.37
2023-05-03T06:46:54.613Z,4.27
2023-05-03T06:49:22.497Z,5.23
2023-05-03T06:51:49.247Z,5.27
2023-05-03T06:54:15.996Z,5.03
2023-05-03T06:56:42.760Z,4.60
2023-05-03T06:59:09.521Z,4.87
2023-05-03T07:01:36.397Z,4.83
2023-05-03T07:04:03.264Z,5.00
2023-05-03T07:06:33.452Z,5.00
2023-05-03T07:09:05.040Z,4.87
2023-05-03T07:11:31.869Z,4.77
2023-05-03T07:13:58.571Z,4.90
2023-05-03T07:16:25.633Z,4.93
2023-05-03T07:18:52.360Z,6.33
2023-05-03T07:21:19.086Z,4.73
2023-05-03T07:23:45.870Z,4.87
2023-05-03T07:26:12.683Z,5.43
2023-05-03T07:28:39.356Z,4.77
2023-05-03T07:31:06.503Z,5.10
2023-05-03T07:33:37.483Z,5.10
2023-05-03T07:36:05.589Z,5.13
2023-05-03T07:38:33.973Z,5.60
2023-05-03T07:41:00.731Z,5.37
2023-05-03T07:43:27.681Z,4.93
2023-05-03T07:45:54.396Z,4.37
2023-05-03T07:48:21.204Z,4.80
2023-05-03T07:50:47.943Z,4.40
2023-05-03T07:53:14.655Z,4.80
2023-05-03T07:55:41.596Z,4.97
2023-05-03T07:58:08.873Z,4.63
2023-05-03T08:00:35.645Z,5.00
2023-05-03T08:03:04.662Z,4.20
2023-05-03T08:05:31.744Z,4.20
2023-05-03T08:07:58.478Z,4.90
2023-05-03T08:10:25.224Z,4.70
2023-05-03T08:12:51.920Z,4.60
2023-05-03T08:15:18.660Z,4.70
2023-05-03T08:17:46.362Z,4.67
2023-05-03T08:20:13.499Z,4.90
2023-05-03T08:22:41.305Z,4.60
2023-05-03T08:25:08.670Z,4.53
2023-05-03T08:27:35.377Z,4.97
2023-05-03T08:30:02.746Z,5.20
2023-05-03T08:32:30.499Z,4.27
2023-05-03T08:34:57.360Z,5.10
2023-05-03T08:37:24.171Z,4.70
2023-05-03T08:39:51.333Z,4.37
2023-05-03T08:42:18.060Z,4.80
2023-05-03T08:44:52.759Z,4.53
2023-05-03T08:47:19.771Z,5.37
2023-05-03T08:49:47.496Z,4.73
2023-05-03T08:52:16.848Z,4.63
2023-05-03T08:54:45.315Z,5.33
2023-05-03T08:57:14.887Z,4.90
2023-05-03T08:59:51.314Z,5.70
2023-05-03T09:02:18.388Z,4.90
2023-05-03T09:04:46.160Z,4.80
2023-05-03T09:07:15.858Z,4.83
2023-05-03T09:09:45.624Z,4.60
2023-05-03T09:12:33.558Z,4.53
2023-05-03T09:15:00.920Z,5.07
2023-05-03T09:17:27.739Z,4.43
2023-05-03T09:19:56.492Z,4.87
2023-05-03T09:22:27.657Z,5.30
2023-05-03T09:24:56.198Z,4.47
2023-05-03T09:27:24.188Z,5.13
2023-05-03T09:29:51.865Z,5.13
2023-05-03T09:32:18.908Z,4.53
2023-05-03T09:34:46.008Z,4.60
2023-05-03T09:37:16.464Z,4.73
2023-05-03T09:39:44.113Z,4.70
2023-05-03T09:42:19.878Z,4.37
2023-05-03T09:44:49.109Z,4.67
2023-05-03T09:47:16.062Z,5.07
2023-05-03T09:49:43.569Z,4.23
2023-05-03T09:52:11.160Z,4.30
2023-05-03T09:54:38.708Z,4.07
2023-05-03T09:57:07.140Z,4.60
2023-05-03T09:59:35.186Z,5.00
2023-05-03T10:02:04.729Z,4.03
2023-05-03T10:04:43.675Z,4.30
2023-05-03T10:07:14.821Z,5.07
2023-05-03T10:09:47.144Z,4.70
2023-05-03T10:12:17.468Z,4.77
2023-05-03T10:14:51.687Z,3.80
2023-05-03T10:17:45.642Z,4.03
2023-05-03T10:20:36.129Z,4.20
2023-05-03T10:23:09.570Z,4.40
2023-05-03T10:25:37.942Z,4.80
2023-05-03T10:28:09.295Z,4.23
2023-05-03T10:30:37.263Z,3.53
2023-05-03T10:33:10.171Z,4.33
2023-05-03T10:35:39.724Z,3.73
2023-05-03T10:38:23.808Z,3.43
2023-05-03T10:40:50.978Z,4.27
2023-05-03T10:43:29.706Z,4.00
2023-05-03T10:46:03.014Z,3.40
2023-05-03T10:48:30.759Z,4.00
2023-05-03T10:50:58.402Z,3.90
2023-05-03T10:53:43.318Z,3.60
2023-05-03T10:56:11.483Z,3.97
2023-05-03T10:58:46.326Z,3.83
2023-05-03T11:01:15.379Z,4.20
2023-05-03T11:03:51.068Z,4.33
2023-05-03T11:06:46.064Z,4.07
2023-05-03T11:09:14.747Z,3.40
2023-05-03T11:11:42.126Z,3.30
2023-05-03T11:14:09.720Z,3.60
2023-05-03T11:16:36.931Z,3.30
2023-05-03T11:19:03.925Z,3.87
2023-05-03T11:21:31.093Z,3.63
2023-05-03T11:23:59.353Z,3.63
2023-05-03T11:26:26.632Z,4.67
2023-05-03T11:28:54.465Z,3.83
2023-05-03T11:31:22.559Z,3.83
2023-05-03T11:33:50.767Z,3.30
2023-05-03T11:36:17.618Z,3.60
2023-05-03T11:38:45.364Z,3.30
2023-05-03T11:41:14.265Z,3.50
2023-05-03T11:43:45.389Z,3.20
2023-05-03T11:46:14.624Z,3.33
2023-05-03T11:48:44.193Z,3.33
2023-05-03T11:51:14.425Z,3.17
2023-05-03T11:53:43.954Z,3.40
2023-05-03T11:56:14.265Z,3.63
2023-05-03T11:58:51.930Z,3.50
2023-05-03T12:01:22.757Z,3.40
2023-05-03T12:04:03.184Z,3.67
2023-05-03T12:06:34.180Z,3.30
2023-05-03T12:09:03.658Z,3.60
2023-05-03T12:11:33.344Z,3.23
2023-05-03T12:14:03.532Z,3.40
2023-05-03T12:16:52.786Z,3.50
2023-05-03T12:19:33.356Z,3.30
2023-05-03T12:22:17.952Z,3.40
2023-05-03T12:24:49.830Z,3.30
2023-05-03T12:27:19.103Z,2.93
2023-05-03T12:29:47.509Z,2.90
2023-05-03T12:32:15.128Z,3.20
2023-05-03T12:34:42.858Z,2.97
2023-05-03T12:37:11.888Z,2.90
2023-05-03T12:39:39.952Z,2.80
2023-05-03T12:42:09.390Z,2.87
2023-05-03T12:44:41.940Z,3.00
2023-05-03T12:47:10.317Z,2.70
2023-05-03T12:49:39.026Z,2.90
2023-05-03T12:52:35.611Z,2.97
2023-05-03T12:55:02.858Z,2.97
2023-05-03T12:57:31.853Z,3.00
2023-05-03T13:00:03.666Z,3.10
2023-05-03T13:05:01.835Z,2.93
2023-05-03T13:07:31.833Z,3.00
2023-05-03T13:12:32.596Z,3.13
2023-05-03T13:15:01.743Z,2.90
2023-05-03T13:17:28.631Z,3.10
2023-05-03T13:19:55.500Z,3.03
2023-05-03T13:22:22.826Z,2.70
2023-05-03T13:24:49.841Z,3.07
2023-05-03T13:27:17.971Z,2.80
2023-05-03T13:29:46.820Z,2.87
2023-05-03T13:32:15.211Z,3.17
2023-05-03T13:34:41.945Z,2.70
2023-05-03T13:37:08.639Z,2.63
2023-05-03T13:39:35.418Z,2.67
2023-05-03T13:42:02.410Z,2.87
2023-05-03T13:44:29.133Z,2.63
2023-05-03T13:46:56.439Z,2.80
2023-05-03T13:49:23.233Z,2.87
2023-05-03T13:51:49.962Z,2.90
2023-05-03T13:54:16.661Z,2.77
2023-05-03T13:56:43.456Z,2.67
2023-05-03T13:59:12.412Z,2.47
2023-05-03T14:01:39.576Z,2.40
2023-05-03T14:04:06.673Z,2.40
2023-05-03T14:06:33.907Z,2.30
2023-05-03T14:09:01.819Z,2.27
2023-05-03T14:11:30.559Z,2.70
2023-05-03T14:13:58.704Z,2.60
2023-05-03T14:18:57.008Z,2.70
2023-05-03T14:21:23.832Z,2.60
2023-05-03T14:23:51.228Z,2.60
2023-05-03T14:26:22.003Z,2.53
2023-05-03T14:28:48.862Z,2.60
2023-05-03T14:31:16.535Z,2.10
2023-05-03T14:33:43.423Z,2.33
2023-05-03T14:36:10.135Z,2.30
2023-05-03T14:38:37.329Z,2.43
2023-05-03T14:41:04.236Z,2.23
2023-05-03T14:43:31.579Z,2.35
2023-05-03T14:45:58.370Z,2.40
2023-05-03T14:48:25.096Z,2.65
2023-05-03T14:50:52.177Z,2.53
2023-05-03T14:53:19.001Z,2.10
2023-05-03T14:55:46.194Z,2.30
2023-05-03T14:58:16.120Z,2.33
2023-05-03T15:00:43.482Z,2.03
2023-05-03T15:03:12.194Z,2.25
2023-05-03T15:05:46.817Z,2.30
2023-05-03T15:08:17.022Z,2.63
2023-05-03T15:10:47.923Z,2.70
2023-05-03T15:13:16.472Z,2.70
2023-05-03T15:15:43.826Z,2.58
2023-05-03T15:18:11.192Z,3.00
2023-05-03T15:20:38.748Z,3.10
2023-05-03T15:23:06.235Z,2.63
2023-05-03T15:25:33.396Z,2.70
2023-05-03T15:28:03.688Z,2.85
2023-05-03T15:30:32.278Z,2.58
2023-05-03T15:32:59.208Z,2.80
2023-05-03T15:35:26.188Z,3.22
2023-05-03T15:37:53.068Z,2.80
2023-05-03T15:40:20.702Z,2.90
2023-05-03T15:42:47.781Z,2.53
2023-05-03T15:45:15.540Z,2.88
2023-05-03T15:47:42.702Z,2.95
2023-05-03T15:50:09.955Z,2.60
2023-05-03T15:52:37.254Z,2.40
2023-05-03T15:55:04.345Z,3.03
2023-05-03T15:57:31.883Z,2.30
2023-05-03T15:59:59.173Z,2.40
2023-05-03T16:02:26.216Z,2.50
2023-05-03T16:04:53.427Z,2.60
2023-05-03T16:07:20.269Z,2.70
2023-05-03T16:09:54.422Z,2.70
2023-05-03T16:12:28.139Z,2.60
2023-05-03T16:15:01.577Z,2.30
2023-05-03T16:17:28.376Z,2.10
2023-05-03T16:19:55.133Z,2.33
2023-05-03T16:22:21.855Z,2.63
2023-05-03T16:24:48.700Z,2.70
2023-05-03T16:27:15.505Z,2.70
2023-05-03T16:29:42.198Z,2.90
2023-05-03T16:32:10.821Z,2.47
2023-05-03T16:34:38.031Z,2.63
2023-05-03T16:37:05.007Z,2.67
2023-05-03T16:39:32.518Z,2.50
2023-05-03T16:41:59.222Z,2.40
2023-05-03T16:44:26.140Z,3.10
2023-05-03T16:46:53.302Z,2.50
2023-05-03T16:49:20.405Z,2.50
2023-05-03T16:51:47.189Z,2.50
2023-05-03T16:54:16.488Z,2.50
2023-05-03T16:56:43.926Z,2.40
2023-05-03T16:59:10.632Z,2.30
2023-05-03T17:01:37.477Z,2.30
2023-05-03T17:04:04.819Z,2.30
2023-05-03T17:06:31.491Z,2.40
2023-05-03T17:08:58.538Z,2.37
2023-05-03T17:11:25.438Z,2.13
2023-05-03T17:13:52.167Z,2.00
2023-05-03T17:16:18.929Z,2.40
2023-05-03T17:18:46.405Z,2.03
2023-05-03T17:21:13.247Z,2.10
2023-05-03T17:23:40.068Z,2.13
2023-05-03T17:26:11.026Z,2.20
2023-05-03T17:28:38.163Z,2.20
2023-05-03T17:31:06.472Z,2.20
2023-05-03T17:33:33.939Z,2.10
2023-05-03T17:36:02.356Z,2.00
2023-05-03T17:38:28.996Z,2.20
2023-05-03T17:40:55.763Z,2.50
2023-05-03T17:43:22.559Z,2.17
2023-05-03T17:45:49.316Z,2.00
2023-05-03T17:48:16.280Z,1.90
2023-05-03T17:50:43.352Z,2.20
2023-05-03T17:53:10.288Z,2.30
2023-05-03T17:55:40.543Z,2.00
2023-05-03T17:58:07.331Z,2.17
2023-05-03T18:00:34.037Z,2.10
2023-05-03T18:03:01.280Z,1.90
2023-05-03T18:05:28.445Z,2.10
2023-05-03T18:07:55.231Z,2.00
2023-05-03T18:10:22.336Z,2.17
2023-05-03T18:12:49.186Z,2.10
2023-05-03T18:15:16.242Z,2.03
2023-05-03T18:17:43.393Z,2.33
2023-05-03T18:20:10.627Z,2.03
2023-05-03T18:22:40.178Z,2.20
2023-05-03T18:25:07.818Z,2.33
2023-05-03T18:27:37.464Z,2.00
2023-05-03T18:30:07.012Z,2.20
2023-05-03T18:32:34.481Z,1.90
2023-05-03T18:35:01.326Z,2.10
2023-05-03T18:37:28.404Z,2.17
2023-05-03T18:39:55.348Z,2.03
2023-05-03T18:42:23.060Z,2.00
2023-05-03T18:44:49.834Z,2.10
2023-05-03T18:47:20.642Z,2.20
2023-05-03T18:49:50.477Z,2.30
2023-05-03T18:52:17.187Z,2.30
2023-05-03T18:54:43.916Z,2.10
2023-05-03T18:57:11.660Z,2.27
2023-05-03T18:59:45.603Z,2.40
2023-05-03T19:02:19.597Z,2.20
2023-05-03T19:04:46.402Z,2.20
2023-05-03T19:07:13.180Z,2.20
2023-05-03T19:09:40.596Z,2.50
2023-05-03T19:12:08.585Z,2.50
2023-05-03T19:14:41.301Z,1.90
2023-05-03T19:17:08.780Z,2.40
2023-05-03T19:19:35.554Z,2.57
2023-05-03T19:22:02.985Z,2.33
2023-05-03T19:24:29.821Z,2.20
2023-05-03T19:26:56.575Z,2.40
2023-05-03T19:29:23.495Z,2.27
2023-05-03T19:31:50.309Z,2.30
2023-05-03T19:34:17.089Z,2.23
2023-05-03T19:36:43.746Z,2.13
2023-05-03T19:39:13.614Z,2.37
2023-05-03T19:41:40.315Z,2.67
2023-05-03T19:44:07.140Z,2.30
2023-05-03T19:46:33.934Z,2.60
2023-05-03T19:49:01.400Z,2.43
2023-05-03T19:51:28.168Z,2.70
2023-05-03T19:53:55.325Z,2.70
2023-05-03T19:56:22.185Z,2.60
2023-05-03T19:58:50.652Z,2.60
2023-05-03T20:01:17.520Z,2.63
2023-05-03T20:03:44.365Z,2.50
2023-05-03T20:06:11.386Z,2.70
2023-05-03T20:08:38.090Z,2.60
2023-05-03T20:11:04.829Z,2.67
2023-05-03T20:13:32.056Z,2.33
2023-05-03T20:16:00.297Z,2.30
2023-05-03T20:18:27.017Z,2.30
2023-05-03T20:20:53.922Z,2.60
2023-05-03T20:23:21.397Z,2.37
2023-05-03T20:25:48.093Z,2.47
2023-05-03T20:28:14.778Z,2.40
2023-05-03T20:30:41.510Z,2.53
2023-05-03T20:33:08.336Z,3.30
2023-05-03T20:35:37.788Z,2.70
2023-05-03T20:38:05.544Z,2.70
2023-05-03T20:40:35.748Z,2.50
2023-05-03T20:43:02.612Z,3.00
2023-05-03T20:45:29.896Z,2.80
2023-05-03T20:47:56.626Z,2.87
2023-05-03T20:50:23.315Z,2.53
2023-05-03T20:52:50.140Z,3.03
2023-05-03T20:55:16.912Z,2.77
2023-05-03T20:57:43.684Z,2.87
2023-05-03T21:00:15.857Z,2.50
2023-05-03T21:02:43.303Z,2.90
2023-05-03T21:05:11.141Z,2.87
2023-05-03T21:07:38.592Z,2.77
2023-05-03T21:10:07.046Z,2.90
2023-05-03T21:12:34.805Z,2.90
2023-05-03T21:15:01.680Z,2.80
2023-05-03T21:17:28.392Z,2.93
2023-05-03T21:19:55.136Z,2.87
2023-05-03T21:22:22.339Z,2.70
2023-05-03T21:24:49.105Z,2.87
2023-05-03T21:27:15.807Z,2.80
2023-05-03T21:29:42.648Z,3.00
2023-05-03T21:32:09.411Z,2.87
2023-05-03T21:34:36.185Z,2.67
2023-05-03T21:37:03.776Z,3.07
2023-05-03T21:39:30.835Z,2.80
2023-05-03T21:41:58.004Z,3.10
2023-05-03T21:44:24.759Z,2.87
2023-05-03T21:46:51.526Z,3.00
2023-05-03T21:49:18.555Z,3.00
2023-05-03T21:51:45.270Z,2.80
2023-05-03T21:54:12.058Z,3.13
2023-05-03T21:56:38.946Z,2.90
2023-05-03T21:59:05.756Z,2.87
2023-05-03T22:01:32.496Z,2.97
2023-05-03T22:03:59.662Z,3.30
2023-05-03T22:06:26.795Z,3.00
2023-05-03T22:08:53.710Z,2.97
2023-05-03T22:11:21.033Z,3.27
2023-05-03T22:14:03.656Z,3.30
2023-05-03T22:16:33.517Z,2.90
2023-05-03T22:19:00.355Z,3.20
2023-05-03T22:21:27.542Z,3.30
2023-05-03T22:23:54.201Z,3.40
2023-05-03T22:26:20.999Z,3.17
2023-05-03T22:28:47.726Z,3.00
2023-05-03T22:31:14.530Z,3.00
2023-05-03T22:33:44.739Z,3.30
2023-05-03T22:36:12.404Z,3.07
2023-05-03T22:38:40.717Z,3.20
2023-05-03T22:41:08.805Z,3.30
2023-05-03T22:43:35.485Z,3.10
2023-05-03T22:46:02.524Z,3.00
2023-05-03T22:48:32.072Z,3.13
2023-05-03T22:50:59.048Z,2.83
2023-05-03T22:53:27.548Z,3.23
2023-05-03T22:56:06.722Z,3.23
2023-05-03T22:58:34.501Z,3.67
2023-05-03T23:01:01.335Z,3.13
2023-05-03T23:03:28.160Z,3.10
2023-05-03T23:05:55.181Z,3.47
2023-05-03T23:08:22.335Z,3.50
2023-05-03T23:10:49.097Z,3.20
2023-05-03T23:13:16.050Z,3.20
2023-05-03T23:15:42.843Z,3.40
2023-05-03T23:18:09.657Z,3.23
2023-05-03T23:20:36.644Z,3.40
2023-05-03T23:23:03.372Z,3.80
2023-05-03T23:25:30.069Z,3.50
2023-05-03T23:27:56.817Z,3.17
2023-05-03T23:30:24.080Z,3.40
2023-05-03T23:32:51.542Z,3.57
2023-05-03T23:35:19.176Z,3.10
2023-05-03T23:37:46.508Z,3.07
2023-05-03T23:40:13.196Z,3.37
2023-05-03T23:42:41.553Z,3.00
2023-05-03T23:45:09.600Z,3.20
2023-05-03T23:47:36.950Z,3.40
2023-05-03T23:50:04.474Z,3.40
2023-05-03T23:52:31.439Z,3.30
2023-05-03T23:54:58.147Z,3.30
2023-05-03T23:57:24.846Z,2.90
2023-05-03T23:59:51.635Z,3.47
